Morganton, Georgia
Current Conditions -  °F | °C
As of 4:55 PM on Saturday 25 Oct 2014 (Local Time) from KRHP Reporting Station
Broken Clouds Broken Clouds  
Wind Chill: 73°   Ceiling: 7000
Heat Index: 73°   Visibility: 10mi
Dew Point: 44°   Wind: 6mph
Humidity: 35%   Direction: 360°N
Pressure: 30.01"   Gusts: NA
Location:  34.87°N, 84.25°W
Report Text: KRHP 252055Z AUTO 36005KT 10SM BKN070 23/06 A3001 RMK AO2 T02260064
Loading
Personal Weather Stations






























Interactive Weather Map
Tropical Storm Tracking
New forecast layout! Learn more

10-Day Weather Forecast

Advertisements
Track Severe Weather on mobile